sensor_id;sensor_type;location;lat;lon;timestamp;pressure;altitude;pressure_sealevel;temperature;humidity
55914;BME280;58179;48.776;9.124;2023-05-01T00:01:33;97276.28;;;10.06;100.00
55914;BME280;58179;48.776;9.124;2023-05-01T00:03:59;97274.69;;;10.05;100.00
55914;BME280;58179;48.776;9.124;2023-05-01T00:06:27;97273.31;;;10.02;100.00
55914;BME280;58179;48.776;9.124;2023-05-01T00:08:52;97275.72;;;10.04;100.00
55914;BME280;58179;48.776;9.124;2023-05-01T00:11:18;97269.94;;;10.07;100.00
55914;BME280;58179;48.776;9.124;2023-05-01T00:13:44;97265.59;;;9.96;100.00
55914;BME280;58179;48.776;9.124;2023-05-01T00:16:11;97259.22;;;9.92;100.00
55914;BME280;58179;48.776;9.124;2023-05-01T00:18:38;97262.91;;;9.91;100.00
55914;BME280;58179;48.776;9.124;2023-05-01T00:21:04;97253.94;;;9.92;100.00
55914;BME280;58179;48.776;9.124;2023-05-01T00:23:31;97251.47;;;9.85;100.00
55914;BME280;58179;48.776;9.124;2023-05-01T00:25:58;97254.84;;;9.81;100.00
55914;BME280;58179;48.776;9.124;2023-05-01T00:28:23;97253.50;;;9.78;100.00
55914;BME280;58179;48.776;9.124;2023-05-01T00:30:49;97250.06;;;9.78;100.00
55914;BME280;58179;48.776;9.124;2023-05-01T00:33:15;97247.69;;;9.76;100.00
55914;BME280;58179;48.776;9.124;2023-05-01T00:35:43;97245.78;;;9.71;100.00
55914;BME280;58179;48.776;9.124;2023-05-01T00:38:09;97246.81;;;9.70;100.00
55914;BME280;58179;48.776;9.124;2023-05-01T00:40:42;97240.47;;;9.71;100.00
55914;BME280;58179;48.776;9.124;2023-05-01T00:43:09;97236.56;;;9.74;100.00
55914;BME280;58179;48.776;9.124;2023-05-01T00:45:35;97234.84;;;9.63;100.00
55914;BME280;58179;48.776;9.124;2023-05-01T00:48:01;97225.59;;;9.60;100.00
55914;BME280;58179;48.776;9.124;2023-05-01T00:50:27;97232.47;;;9.61;100.00
55914;BME280;58179;48.776;9.124;2023-05-01T00:52:54;97227.44;;;9.60;100.00
55914;BME280;58179;48.776;9.124;2023-05-01T00:55:21;97223.66;;;9.56;100.00
55914;BME280;58179;48.776;9.124;2023-05-01T00:57:49;97225.28;;;9.57;100.00
55914;BME280;58179;48.776;9.124;2023-05-01T01:00:15;97226.03;;;9.52;100.00
55914;BME280;58179;48.776;9.124;2023-05-01T01:02:42;97222.88;;;9.55;100.00
55914;BME280;58179;48.776;9.124;2023-05-01T01:05:08;97223.06;;;9.49;100.00
55914;BME280;58179;48.776;9.124;2023-05-01T01:07:42;97219.34;;;9.45;100.00
55914;BME280;58179;48.776;9.124;2023-05-01T01:10:20;97211.16;;;9.46;100.00
55914;BME280;58179;48.776;9.124;2023-05-01T01:13:00;97206.69;;;9.47;100.00
55914;BME280;58179;48.776;9.124;2023-05-01T01:15:32;97203.78;;;9.48;100.00
55914;BME280;58179;48.776;9.124;2023-05-01T01:18:08;97208.53;;;9.46;100.00
55914;BME280;58179;48.776;9.124;2023-05-01T01:20:38;97202.16;;;9.47;100.00
55914;BME280;58179;48.776;9.124;2023-05-01T01:23:42;97199.53;;;9.47;100.00
55914;BME280;58179;48.776;9.124;2023-05-01T01:26:38;97195.56;;;9.45;100.00
55914;BME280;58179;48.776;9.124;2023-05-01T01:29:55;97204.28;;;9.45;100.00
55914;BME280;58179;48.776;9.124;2023-05-01T01:33:20;97205.28;;;9.39;100.00
55914;BME280;58179;48.776;9.124;2023-05-01T01:35:54;97195.25;;;9.41;100.00
55914;BME280;58179;48.776;9.124;2023-05-01T01:38:28;97199.78;;;9.46;100.00
55914;BME280;58179;48.776;9.124;2023-05-01T01:41:00;97190.03;;;9.46;100.00
55914;BME280;58179;48.776;9.124;2023-05-01T01:43:36;97192.97;;;9.50;100.00
55914;BME280;58179;48.776;9.124;2023-05-01T01:46:06;97197.19;;;9.51;100.00
55914;BME280;58179;48.776;9.124;2023-05-01T01:48:36;97198.28;;;9.55;100.00
55914;BME280;58179;48.776;9.124;2023-05-01T01:51:07;97197.00;;;9.57;100.00
55914;BME280;58179;48.776;9.124;2023-05-01T01:53:35;97192.50;;;9.58;100.00
55914;BME280;58179;48.776;9.124;2023-05-01T01:56:03;97193.88;;;9.60;100.00
55914;BME280;58179;48.776;9.124;2023-05-01T01:58:31;97189.63;;;9.59;100.00
55914;BME280;58179;48.776;9.124;2023-05-01T02:01:01;97193.31;;;9.58;100.00
55914;BME280;58179;48.776;9.124;2023-05-01T02:03:29;97185.63;;;9.57;100.00
55914;BME280;58179;48.776;9.124;2023-05-01T02:05:57;97184.00;;;9.51;100.00
55914;BME280;58179;48.776;9.124;2023-05-01T02:08:28;97175.25;;;9.50;100.00
55914;BME280;58179;48.776;9.124;2023-05-01T02:10:55;97176.84;;;9.51;100.00
55914;BME280;58179;48.776;9.124;2023-05-01T02:13:26;97175.56;;;9.54;100.00
55914;BME280;58179;48.776;9.124;2023-05-01T02:15:54;97172.13;;;9.53;100.00
55914;BME280;58179;48.776;9.124;2023-05-01T02:18:21;97164.44;;;9.52;100.00
55914;BME280;58179;48.776;9.124;2023-05-01T02:20:47;97164.44;;;9.52;100.00
55914;BME280;58179;48.776;9.124;2023-05-01T02:23:14;97166.28;;;9.51;100.00
55914;BME280;58179;48.776;9.124;2023-05-01T02:25:43;97163.94;;;9.55;100.00
55914;BME280;58179;48.776;9.124;2023-05-01T02:28:12;97167.94;;;9.57;100.00
55914;BME280;58179;48.776;9.124;2023-05-01T02:30:40;97158.19;;;9.63;100.00
55914;BME280;58179;48.776;9.124;2023-05-01T02:33:07;97160.34;;;9.66;100.00
55914;BME280;58179;48.776;9.124;2023-05-01T02:35:38;97160.34;;;9.66;100.00
55914;BME280;58179;48.776;9.124;2023-05-01T02:38:04;97153.22;;;9.66;100.00
55914;BME280;58179;48.776;9.124;2023-05-01T02:40:31;97154.03;;;9.67;100.00
55914;BME280;58179;48.776;9.124;2023-05-01T02:42:59;97146.09;;;9.67;100.00
55914;BME280;58179;48.776;9.124;2023-05-01T02:45:30;97142.63;;;9.61;100.00
55914;BME280;58179;48.776;9.124;2023-05-01T02:47:58;97138.63;;;9.59;100.00
55914;BME280;58179;48.776;9.124;2023-05-01T02:50:26;97143.34;;;9.57;100.00
55914;BME280;58179;48.776;9.124;2023-05-01T02:52:53;97139.91;;;9.56;100.00
55914;BME280;58179;48.776;9.124;2023-05-01T02:55:19;97141.47;;;9.52;100.00
55914;BME280;58179;48.776;9.124;2023-05-01T02:57:45;97135.38;;;9.52;100.00
55914;BME280;58179;48.776;9.124;2023-05-01T03:00:13;97132.50;;;9.53;100.00
55914;BME280;58179;48.776;9.124;2023-05-01T03:02:39;97129.06;;;9.53;100.00
55914;BME280;58179;48.776;9.124;2023-05-01T03:05:06;97135.16;;;9.53;100.00
55914;BME280;58179;48.776;9.124;2023-05-01T03:07:32;97133.31;;;9.54;100.00
55914;BME280;58179;48.776;9.124;2023-05-01T03:10:01;97140.16;;;9.55;100.00
55914;BME280;58179;48.776;9.124;2023-05-01T03:12:28;97134.88;;;9.55;100.00
55914;BME280;58179;48.776;9.124;2023-05-01T03:14:54;97138.31;;;9.55;100.00
55914;BME280;58179;48.776;9.124;2023-05-01T03:17:22;97133.59;;;9.57;100.00
55914;BME280;58179;48.776;9.124;2023-05-01T03:19:48;97131.50;;;9.59;100.00
55914;BME280;58179;48.776;9.124;2023-05-01T03:22:14;97129.41;;;9.61;100.00
55914;BME280;58179;48.776;9.124;2023-05-01T03:24:40;97133.09;;;9.60;100.00
55914;BME280;58179;48.776;9.124;2023-05-01T03:27:06;97129.09;;;9.58;100.00
55914;BME280;58179;48.776;9.124;2023-05-01T03:29:33;97132.78;;;9.57;100.00
55914;BME280;58179;48.776;9.124;2023-05-01T03:31:59;97129.34;;;9.56;100.00
55914;BME280;58179;48.776;9.124;2023-05-01T03:34:26;97129.66;;;9.60;100.00
55914;BME280;58179;48.776;9.124;2023-05-01T03:36:52;97132.56;;;9.63;100.00
55914;BME280;58179;48.776;9.124;2023-05-01T03:39:19;97118.88;;;9.66;100.00
55914;BME280;58179;48.776;9.124;2023-05-01T03:41:44;97131.03;;;9.67;100.00
55914;BME280;58179;48.776;9.124;2023-05-01T03:44:10;97120.72;;;9.66;100.00
55914;BME280;58179;48.776;9.124;2023-05-01T03:46:36;97117.75;;;9.62;100.00
55914;BME280;58179;48.776;9.124;2023-05-01T03:49:02;97121.72;;;9.60;100.00
55914;BME280;58179;48.776;9.124;2023-05-01T03:51:29;97117.72;;;9.57;100.00
55914;BME280;58179;48.776;9.124;2023-05-01T03:53:55;97110.84;;;9.56;100.00
55914;BME280;58179;48.776;9.124;2023-05-01T03:56:24;97112.69;;;9.56;100.00
55914;BME280;58179;48.776;9.124;2023-05-01T03:58:50;97109.25;;;9.55;100.00
55914;BME280;58179;48.776;9.124;2023-05-01T04:01:16;97111.88;;;9.55;100.00
55914;BME280;58179;48.776;9.124;2023-05-01T04:03:43;97109.53;;;9.54;100.00
55914;BME280;58179;48.776;9.124;2023-05-01T04:06:09;97111.09;;;9.55;100.00
55914;BME280;58179;48.776;9.124;2023-05-01T04:08:36;97108.19;;;9.56;100.00
55914;BME280;58179;48.776;9.124;2023-05-01T04:11:02;97110.59;;;9.58;100.00
55914;BME280;58179;48.776;9.124;2023-05-01T04:13:28;97115.63;;;9.59;100.00
55914;BME280;58179;48.776;9.124;2023-05-01T04:15:54;97102.19;;;9.61;100.00
55914;BME280;58179;48.776;9.124;2023-05-01T04:18:22;97115.13;;;9.62;100.00
55914;BME280;58179;48.776;9.124;2023-05-01T04:20:48;97109.34;;;9.65;100.00
55914;BME280;58179;48.776;9.124;2023-05-01T04:23:13;97109.09;;;9.67;100.00
55914;BME280;58179;48.776;9.124;2023-05-01T04:25:41;97105.41;;;9.68;100.00
55914;BME280;58179;48.776;9.124;2023-05-01T04:28:09;97107.00;;;9.69;100.00
55914;BME280;58179;48.776;9.124;2023-05-01T04:30:35;97114.41;;;9.72;100.00
55914;BME280;58179;48.776;9.124;2023-05-01T04:33:01;97113.88;;;9.70;100.00
55914;BME280;58179;48.776;9.124;2023-05-01T04:35:28;97105.69;;;9.71;100.00
55914;BME280;58179;48.776;9.124;2023-05-01T04:37:54;97105.44;;;9.73;100.00
55914;BME280;58179;48.776;9.124;2023-05-01T04:40:20;97119.22;;;9.75;100.00
55914;BME280;58179;48.776;9.124;2023-05-01T04:42:48;97120.81;;;9.76;100.00
55914;BME280;58179;48.776;9.124;2023-05-01T04:45:14;97122.94;;;9.79;100.00
55914;BME280;58179;48.776;9.124;2023-05-01T04:47:40;97114.75;;;9.81;100.00
55914;BME280;58179;48.776;9.124;2023-05-01T04:50:07;97117.41;;;9.81;100.00
55914;BME280;58179;48.776;9.124;2023-05-01T04:52:33;97113.97;;;9.80;100.00
55914;BME280;58179;48.776;9.124;2023-05-01T04:55:00;97116.84;;;9.79;100.00
55914;BME280;58179;48.776;9.124;2023-05-01T04:57:27;97107.59;;;9.76;100.00
55914;BME280;58179;48.776;9.124;2023-05-01T04:59:54;97115.53;;;9.76;100.00
55914;BME280;58179;48.776;9.124;2023-05-01T05:02:20;97115.25;;;9.78;100.00
55914;BME280;58179;48.776;9.124;2023-05-01T05:04:46;97114.75;;;9.81;100.00
55914;BME280;58179;48.776;9.124;2023-05-01T05:07:11;97117.72;;;9.84;100.00
55914;BME280;58179;48.776;9.124;2023-05-01T05:09:38;97119.34;;;9.90;100.00
55914;BME280;58179;48.776;9.124;2023-05-01T05:12:04;97123.56;;;9.91;100.00
55914;BME280;58179;48.776;9.124;2023-05-01T05:14:30;97119.63;;;9.94;100.00
55914;BME280;58179;48.776;9.124;2023-05-01T05:16:57;97119.91;;;9.97;100.00
55914;BME280;58179;48.776;9.124;2023-05-01T05:19:23;97112.25;;;10.01;100.00
55914;BME280;58179;48.776;9.124;2023-05-01T05:21:49;97116.81;;;10.05;100.00
55914;BME280;58179;48.776;9.124;2023-05-01T05:24:15;97118.13;;;10.08;100.00
55914;BME280;58179;48.776;9.124;2023-05-01T05:26:41;97118.69;;;10.10;100.00
55914;BME280;58179;48.776;9.124;2023-05-01T05:29:07;97119.22;;;10.12;100.00
55914;BME280;58179;48.776;9.124;2023-05-01T05:31:33;97117.38;;;10.13;100.00
55914;BME280;58179;48.776;9.124;2023-05-01T05:34:00;97122.13;;;10.10;100.00
55914;BME280;58179;48.776;9.124;2023-05-01T05:36:26;97113.38;;;10.05;100.00
55914;BME280;58179;48.776;9.124;2023-05-01T05:38:52;97128.41;;;9.99;100.00
55914;BME280;58179;48.776;9.124;2023-05-01T05:41:18;97131.28;;;9.98;100.00
55914;BME280;58179;48.776;9.124;2023-05-01T05:43:44;97129.69;;;9.97;100.00
55914;BME280;58179;48.776;9.124;2023-05-01T05:46:10;97121.75;;;9.97;100.00
55914;BME280;58179;48.776;9.124;2023-05-01T05:48:36;97131.78;;;9.95;100.00
55914;BME280;58179;48.776;9.124;2023-05-01T05:51:03;97129.38;;;9.93;100.00
55914;BME280;58179;48.776;9.124;2023-05-01T05:53:29;97123.56;;;9.91;100.00
55914;BME280;58179;48.776;9.124;2023-05-01T05:55:56;97121.44;;;9.88;100.00
55914;BME280;58179;48.776;9.124;2023-05-01T05:58:21;97121.16;;;9.85;100.00
55914;BME280;58179;48.776;9.124;2023-05-01T06:00:49;97124.38;;;9.92;100.00
55914;BME280;58179;48.776;9.124;2023-05-01T06:03:16;97118.81;;;9.93;100.00
55914;BME280;58179;48.776;9.124;2023-05-01T06:05:43;97118.31;;;9.96;100.00
55914;BME280;58179;48.776;9.124;2023-05-01T06:08:10;97124.44;;;10.02;100.00
55914;BME280;58179;48.776;9.124;2023-05-01T06:10:37;97130.06;;;10.10;100.00
55914;BME280;58179;48.776;9.124;2023-05-01T06:13:04;97121.69;;;10.19;100.00
55914;BME280;58179;48.776;9.124;2023-05-01T06:15:30;97126.00;;;10.30;100.00
55914;BME280;58179;48.776;9.124;2023-05-01T06:17:56;97128.69;;;10.40;100.00
55914;BME280;58179;48.776;9.124;2023-05-01T06:20:21;97122.13;;;10.47;100.00
55914;BME280;58179;48.776;9.124;2023-05-01T06:22:47;97123.22;;;10.52;100.00
55914;BME280;58179;48.776;9.124;2023-05-01T06:25:15;97128.78;;;10.60;100.00
55914;BME280;58179;48.776;9.124;2023-05-01T06:27:41;97124.59;;;10.69;100.00
55914;BME280;58179;48.776;9.124;2023-05-01T06:30:08;97132.59;;;10.79;100.00
55914;BME280;58179;48.776;9.124;2023-05-01T06:32:35;97121.78;;;10.91;100.00
55914;BME280;58179;48.776;9.124;2023-05-01T06:35:01;97132.94;;;10.98;100.00
55914;BME280;58179;48.776;9.124;2023-05-01T06:37:27;97132.44;;;11.06;100.00
55914;BME280;58179;48.776;9.124;2023-05-01T06:39:53;97135.38;;;11.15;100.00
55914;BME280;58179;48.776;9.124;2023-05-01T06:42:20;97133.03;;;11.23;100.00
55914;BME280;58179;48.776;9.124;2023-05-01T06:44:46;97143.91;;;11.32;100.00
55914;BME280;58179;48.776;9.124;2023-05-01T06:47:12;97136.75;;;11.38;100.00
55914;BME280;58179;48.776;9.124;2023-05-01T06:49:38;97138.34;;;11.44;100.00
55914;BME280;58179;48.776;9.124;2023-05-01T06:52:04;97139.19;;;11.49;100.00
55914;BME280;58179;48.776;9.124;2023-05-01T06:54:29;97145.28;;;11.55;100.00
55914;BME280;58179;48.776;9.124;2023-05-01T06:56:55;97148.47;;;11.57;100.00
55914;BME280;58179;48.776;9.124;2023-05-01T06:59:23;97149.81;;;11.64;100.00
55914;BME280;58179;48.776;9.124;2023-05-01T07:01:50;97147.69;;;11.72;100.00
55914;BME280;58179;48.776;9.124;2023-05-01T07:04:16;97148.53;;;11.82;100.00
55914;BME280;58179;48.776;9.124;2023-05-01T07:06:42;97150.94;;;11.94;100.00
55914;BME280;58179;48.776;9.124;2023-05-01T07:09:08;97141.13;;;11.94;100.00
55914;BME280;58179;48.776;9.124;2023-05-01T07:11:34;97151.19;;;11.87;100.00
55914;BME280;58179;48.776;9.124;2023-05-01T07:14:00;97149.06;;;11.89;100.00
55914;BME280;58179;48.776;9.124;2023-05-01T07:16:27;97155.69;;;11.82;100.00
55914;BME280;58179;48.776;9.124;2023-05-01T07:18:53;97151.66;;;11.54;100.00
55914;BME280;58179;48.776;9.124;2023-05-01T07:21:19;97147.66;;;11.41;100.00
55914;BME280;58179;48.776;9.124;2023-05-01T07:23:45;97149.50;;;11.41;100.00
55914;BME280;58179;48.776;9.124;2023-05-01T07:26:11;97147.63;;;11.36;100.00
55914;BME280;58179;48.776;9.124;2023-05-01T07:28:37;97141.56;;;11.51;100.00
55914;BME280;58179;48.776;9.124;2023-05-01T07:31:03;97137.06;;;11.67;100.00
55914;BME280;58179;48.776;9.124;2023-05-01T07:33:30;97138.44;;;11.84;100.00
55914;BME280;58179;48.776;9.124;2023-05-01T07:35:56;97140.31;;;11.99;100.00
55914;BME280;58179;48.776;9.124;2023-05-01T07:38:22;97145.09;;;12.02;100.00
55914;BME280;58179;48.776;9.124;2023-05-01T07:40:51;97141.38;;;12.13;100.00
55914;BME280;58179;48.776;9.124;2023-05-01T07:43:18;97136.56;;;12.30;100.00
55914;BME280;58179;48.776;9.124;2023-05-01T07:45:54;97128.59;;;12.46;100.00
55914;BME280;58179;48.776;9.124;2023-05-01T07:48:20;97133.59;;;12.62;100.00
55914;BME280;58179;48.776;9.124;2023-05-01T07:50:48;97142.56;;;12.71;100.00
55914;BME280;58179;48.776;9.124;2023-05-01T07:53:13;97134.63;;;12.76;100.00
55914;BME280;58179;48.776;9.124;2023-05-01T07:55:39;97134.09;;;12.69;100.00
55914;BME280;58179;48.776;9.124;2023-05-01T07:58:06;97132.50;;;12.73;100.00
55914;BME280;58179;48.776;9.124;2023-05-01T08:00:32;97124.53;;;12.73;100.00
55914;BME280;58179;48.776;9.124;2023-05-01T08:02:58;97121.56;;;12.80;100.00
55914;BME280;58179;48.776;9.124;2023-05-01T08:05:24;97127.69;;;12.80;100.00
55914;BME280;58179;48.776;9.124;2023-05-01T08:07:51;97124.78;;;12.72;100.00
55914;BME280;58179;48.776;9.124;2023-05-01T08:10:17;97117.63;;;12.67;100.00
55914;BME280;58179;48.776;9.124;2023-05-01T08:12:43;97121.88;;;12.73;100.00
55914;BME280;58179;48.776;9.124;2023-05-01T08:15:09;97123.72;;;12.73;100.00
55914;BME280;58179;48.776;9.124;2023-05-01T08:17:35;97123.78;;;12.63;100.00
55914;BME280;58179;48.776;9.124;2023-05-01T08:20:02;97119.00;;;12.60;100.00
55914;BME280;58179;48.776;9.124;2023-05-01T08:22:28;97122.19;;;12.62;100.00
55914;BME280;58179;48.776;9.124;2023-05-01T08:24:55;97115.50;;;12.64;100.00
55914;BME280;58179;48.776;9.124;2023-05-01T08:27:21;97116.53;;;12.84;100.00
55914;BME280;58179;48.776;9.124;2023-05-01T08:29:47;97117.03;;;12.91;100.00
55914;BME280;58179;48.776;9.124;2023-05-01T08:32:13;97116.91;;;13.16;100.00
55914;BME280;58179;48.776;9.124;2023-05-01T08:34:39;97117.91;;;13.35;100.00
55914;BME280;58179;48.776;9.124;2023-05-01T08:37:05;97112.44;;;13.61;100.00
55914;BME280;58179;48.776;9.124;2023-05-01T08:39:31;97115.84;;;13.61;100.00
55914;BME280;58179;48.776;9.124;2023-05-01T08:41:58;97114.25;;;13.65;100.00
55914;BME280;58179;48.776;9.124;2023-05-01T08:44:25;97108.50;;;13.87;100.00
55914;BME280;58179;48.776;9.124;2023-05-01T08:47:02;97110.63;;;13.85;100.00
55914;BME280;58179;48.776;9.124;2023-05-01T08:49:32;97104.16;;;13.96;100.00
55914;BME280;58179;48.776;9.124;2023-05-01T08:52:01;97106.97;;;14.10;100.00
55914;BME280;58179;48.776;9.124;2023-05-01T08:54:29;97106.59;;;14.21;100.00
55914;BME280;58179;48.776;9.124;2023-05-01T08:57:02;97108.31;;;14.36;100.00
55914;BME280;58179;48.776;9.124;2023-05-01T08:59:29;97111.88;;;14.55;100.00
55914;BME280;58179;48.776;9.124;2023-05-01T09:02:00;97113.69;;;14.60;100.00
55914;BME280;58179;48.776;9.124;2023-05-01T09:04:30;97108.34;;;14.84;100.00
55914;BME280;58179;48.776;9.124;2023-05-01T09:06:58;97116.59;;;14.87;100.00
55914;BME280;58179;48.776;9.124;2023-05-01T09:09:25;97122.66;;;15.11;100.00
55914;BME280;58179;48.776;9.124;2023-05-01T09:11:52;97118.56;;;15.19;100.00
55914;BME280;58179;48.776;9.124;2023-05-01T09:14:19;97120.25;;;15.15;100.00
55914;BME280;58179;48.776;9.124;2023-05-01T09:16:45;97122.66;;;15.11;100.00
55914;BME280;58179;48.776;9.124;2023-05-01T09:19:11;97120.69;;;15.22;100.00
55914;BME280;58179;48.776;9.124;2023-05-01T09:21:37;97115.06;;;15.24;100.00
55914;BME280;58179;48.776;9.124;2023-05-01T09:24:04;97115.41;;;15.17;100.00
55914;BME280;58179;48.776;9.124;2023-05-01T09:26:30;97114.38;;;15.13;100.00
55914;BME280;58179;48.776;9.124;2023-05-01T09:28:58;97120.78;;;15.12;100.00
55914;BME280;58179;48.776;9.124;2023-05-01T09:31:28;97117.69;;;15.05;100.00
55914;BME280;58179;48.776;9.124;2023-05-01T09:33:56;97116.41;;;15.21;100.00
55914;BME280;58179;48.776;9.124;2023-05-01T09:36:25;97119.75;;;15.32;100.00
55914;BME280;58179;48.776;9.124;2023-05-01T09:38:52;97113.28;;;15.57;100.00
55914;BME280;58179;48.776;9.124;2023-05-01T09:41:19;97115.47;;;15.87;100.00
55914;BME280;58179;48.776;9.124;2023-05-01T09:43:52;97111.22;;;16.18;100.00
55914;BME280;58179;48.776;9.124;2023-05-01T09:46:20;97113.47;;;16.44;100.00
55914;BME280;58179;48.776;9.124;2023-05-01T09:48:56;97109.84;;;16.67;100.00
55914;BME280;58179;48.776;9.124;2023-05-01T09:51:25;97102.94;;;16.80;100.00
55914;BME280;58179;48.776;9.124;2023-05-01T09:53:53;97109.34;;;16.79;100.00
55914;BME280;58179;48.776;9.124;2023-05-01T09:56:19;97106.19;;;16.77;100.00
55914;BME280;58179;48.776;9.124;2023-05-01T09:58:50;97104.81;;;16.66;100.00
55914;BME280;58179;48.776;9.124;2023-05-01T10:01:16;97098.25;;;16.58;100.00
55914;BME280;58179;48.776;9.124;2023-05-01T10:03:43;97106.03;;;16.54;100.00
55914;BME280;58179;48.776;9.124;2023-05-01T10:06:11;97103.19;;;16.51;100.00
55914;BME280;58179;48.776;9.124;2023-05-01T10:08:50;97106.03;;;16.54;100.00
55914;BME280;58179;48.776;9.124;2023-05-01T10:11:16;97109.44;;;16.60;100.00
55914;BME280;58179;48.776;9.124;2023-05-01T10:13:42;97108.78;;;16.68;100.00
55914;BME280;58179;48.776;9.124;2023-05-01T10:16:28;97104.00;;;16.79;100.00
55914;BME280;58179;48.776;9.124;2023-05-01T10:18:55;97115.81;;;16.91;100.00
55914;BME280;58179;48.776;9.124;2023-05-01T10:21:23;97110.63;;;17.09;100.00
55914;BME280;58179;48.776;9.124;2023-05-01T10:23:50;97119.25;;;17.19;100.00
55914;BME280;58179;48.776;9.124;2023-05-01T10:26:17;97111.59;;;17.26;100.00
55914;BME280;58179;48.776;9.124;2023-05-01T10:28:46;97109.41;;;17.28;100.00
55914;BME280;58179;48.776;9.124;2023-05-01T10:31:12;97114.66;;;17.33;100.00
55914;BME280;58179;48.776;9.124;2023-05-01T10:33:39;97112.34;;;17.40;100.00
55914;BME280;58179;48.776;9.124;2023-05-01T10:36:10;97108.75;;;17.59;100.00
55914;BME280;58179;48.776;9.124;2023-05-01T10:38:40;97115.03;;;17.76;100.00
55914;BME280;58179;48.776;9.124;2023-05-01T10:41:10;97109.09;;;18.02;100.00
55914;BME280;58179;48.776;9.124;2023-05-01T10:43:37;97107.78;;;18.22;100.00
55914;BME280;58179;48.776;9.124;2023-05-01T10:46:27;97107.00;;;18.52;100.00
55914;BME280;58179;48.776;9.124;2023-05-01T10:48:57;97111.53;;;18.74;100.00
55914;BME280;58179;48.776;9.124;2023-05-01T10:51:25;97116.81;;;18.96;100.00
55914;BME280;58179;48.776;9.124;2023-05-01T10:54:36;97112.28;;;19.14;100.00
55914;BME280;58179;48.776;9.124;2023-05-01T10:57:04;97108.81;;;19.13;100.00
55914;BME280;58179;48.776;9.124;2023-05-01T11:00:09;97114.78;;;19.02;100.00
55914;BME280;58179;48.776;9.124;2023-05-01T11:02:35;97106.34;;;18.77;100.00
55914;BME280;58179;48.776;9.124;2023-05-01T11:05:01;97106.69;;;18.53;100.00
55914;BME280;58179;48.776;9.124;2023-05-01T11:07:28;97099.78;;;18.30;100.00
55914;BME280;58179;48.776;9.124;2023-05-01T11:09:57;97102.50;;;18.08;100.00
55914;BME280;58179;48.776;9.124;2023-05-01T11:12:49;97098.91;;;17.90;100.00
55914;BME280;58179;48.776;9.124;2023-05-01T11:15:26;97095.50;;;17.76;100.00
55914;BME280;58179;48.776;9.124;2023-05-01T11:17:52;97097.22;;;17.72;100.00
55914;BME280;58179;48.776;9.124;2023-05-01T11:20:49;97101.16;;;17.74;100.00
55914;BME280;58179;48.776;9.124;2023-05-01T11:23:19;97101.94;;;17.75;100.00
55914;BME280;58179;48.776;9.124;2023-05-01T11:25:47;97104.59;;;17.66;100.00
55914;BME280;58179;48.776;9.124;2023-05-01T11:28:19;97090.72;;;17.64;100.00
55914;BME280;58179;48.776;9.124;2023-05-01T11:30:46;97098.44;;;17.52;100.00
55914;BME280;58179;48.776;9.124;2023-05-01T11:33:13;97092.41;;;17.47;100.00
55914;BME280;58179;48.776;9.124;2023-05-01T11:35:59;97090.81;;;17.46;100.00
55914;BME280;58179;48.776;9.124;2023-05-01T11:38:25;97096.41;;;17.35;100.00
55914;BME280;58179;48.776;9.124;2023-05-01T11:40:57;97090.19;;;17.26;100.00
55914;BME280;58179;48.776;9.124;2023-05-01T11:43:24;97102.19;;;17.15;100.00
55914;BME280;58179;48.776;9.124;2023-05-01T11:45:52;97099.50;;;17.15;100.00
55914;BME280;58179;48.776;9.124;2023-05-01T11:48:20;97093.56;;;17.18;100.00
55914;BME280;58179;48.776;9.124;2023-05-01T11:50:47;97099.00;;;17.27;100.00
55914;BME280;58179;48.776;9.124;2023-05-01T11:53:14;97102.47;;;17.27;100.00
55914;BME280;58179;48.776;9.124;2023-05-01T11:55:40;97097.38;;;17.39;100.00
55914;BME280;58179;48.776;9.124;2023-05-01T11:58:07;97096.09;;;17.51;100.00
55914;BME280;58179;48.776;9.124;2023-05-01T12:00:35;97098.63;;;17.56;100.00
55914;BME280;58179;48.776;9.124;2023-05-01T12:03:04;97092.69;;;17.59;100.00
55914;BME280;58179;48.776;9.124;2023-05-01T12:05:32;97091.25;;;17.75;100.00
55914;BME280;58179;48.776;9.124;2023-05-01T12:08:10;97083.53;;;17.96;100.00
55914;BME280;58179;48.776;9.124;2023-05-01T12:10:39;97087.59;;;18.15;100.00
55914;BME280;58179;48.776;9.124;2023-05-01T12:13:08;97080.56;;;18.28;100.00
55914;BME280;58179;48.776;9.124;2023-05-01T12:15:36;97085.34;;;18.40;100.00
55914;BME280;58179;48.776;9.124;2023-05-01T12:18:03;97091.22;;;18.50;100.00
55914;BME280;58179;48.776;9.124;2023-05-01T12:20:37;97086.56;;;18.65;100.00
55914;BME280;58179;48.776;9.124;2023-05-01T12:23:04;97086.25;;;18.66;100.00
55914;BME280;58179;48.776;9.124;2023-05-01T12:25:32;97082.34;;;18.72;100.00
55914;BME280;58179;48.776;9.124;2023-05-01T12:28:01;97083.19;;;18.90;100.00
55914;BME280;58179;48.776;9.124;2023-05-01T12:30:28;97084.00;;;18.99;100.00
55914;BME280;58179;48.776;9.124;2023-05-01T12:32:55;97086.38;;;19.01;100.00
55914;BME280;58179;48.776;9.124;2023-05-01T12:35:27;97081.47;;;18.94;100.00
55914;BME280;58179;48.776;9.124;2023-05-01T12:37:53;97081.13;;;18.87;100.00
55914;BME280;58179;48.776;9.124;2023-05-01T12:40:20;97087.69;;;18.72;100.00
55914;BME280;58179;48.776;9.124;2023-05-01T12:42:54;97083.00;;;18.47;100.00
55914;BME280;58179;48.776;9.124;2023-05-01T12:45:21;97087.25;;;18.39;100.00
55914;BME280;58179;48.776;9.124;2023-05-01T12:47:49;97087.63;;;18.24;100.00
55914;BME280;58179;48.776;9.124;2023-05-01T12:50:15;97083.81;;;18.16;100.00
55914;BME280;58179;48.776;9.124;2023-05-01T12:52:41;97080.16;;;18.12;100.00
55914;BME280;58179;48.776;9.124;2023-05-01T12:55:08;97072.00;;;18.17;100.00
55914;BME280;58179;48.776;9.124;2023-05-01T12:57:34;97075.91;;;18.11;100.00
55914;BME280;58179;48.776;9.124;2023-05-01T13:00:03;97077.44;;;18.04;100.00
55914;BME280;58179;48.776;9.124;2023-05-01T13:02:32;97078.84;;;17.79;100.00